Furniss, New York
Current Conditions -  °F | °C
As of 10:54 PM on Saturday 25 Oct 2014 (Local Time) from KFZY Reporting Station
Overcast Overcast  
Wind Chill: 55°   Ceiling: 4300
Heat Index: 55°   Visibility: 10mi
Dew Point: 47°   Wind: 10mph
Humidity: 74%   Direction: 300°WNW
Pressure: 29.57"   Gusts: NA
Location:  43.4571°N, 76.4163°W
Report Text: KFZY 260254Z AUTO 30009KT 10SM FEW026 FEW030 OVC043 13/08 A2957 RMK AO2 LTG DSNT E SLP011 T01280083 55006
Loading
Personal Weather Stations






























Interactive Weather Map
Tropical Storm Tracking
New forecast layout! Learn more

10-Day Weather Forecast

Advertisements
Track Severe Weather on mobile